Nearby METAR Reports

 

KSJC - San Jose, California, USA
Distance from station: NE 14km
Actualización: 18/01/2019 15:53
Cubierto
Cubierto
 Viento del SSE
Viento: SSE 7 km/h
Temperatura: 11°C
Rocío: 9°C
Humedad: 88%
Barómetro: 1026.1 hPa
Clouds: Cubierto
Visibility: 16 km
Cloud details: Muy nuboso 1981 m
Cubierto 2743 m
2019/01/18 14:53 KSJC 181453Z 15004KT 10SM BKN065 OVC090 11/09 A3030 RMK AO2 SLP260 T01110089 53003
KNUQ - Moffett Nas/Mtn, California, USA
Distance from station: N 14km
Actualización: 18/01/2019 15:56
Cubierto
Cubierto
 Viento del calm
Viento: Calma
Temperatura: 11°C
Rocío: 9°C
Humedad: 88%
Barómetro: 1026.4 hPa
Clouds: Cubierto
Visibility: 16 km
Cloud details: Cubierto 2134 m
2019/01/18 14:56 KNUQ 181456Z AUTO 00000KT 10SM OVC070 11/09 A3031 RMK AO2 SLP266 T01060089 53005
 
KPAO - Palo Alto, California, USA
Distance from station: NNO 23km
Actualización: 18/01/2019 15:47
Cubierto
Cubierto
 Viento del calm
Viento: Calma
Temperatura: 11°C
Rocío: 10°C
Humedad: 94%
Barómetro: 1026.4 hPa
Clouds: Cubierto
Visibility: 16 km
Cloud details: Cubierto 2134 m
2019/01/18 14:47 KPAO 181447Z 00000KT 10SM OVC070 11/10 A3031
KRHV - San Jose/Reid, California, USA
Distance from station: ENE 19km
Actualización: 17/01/2019 00:50
NOT Current
Cubierto
Cubierto
 Viento del SE
Viento: SE 33 km/h
Temperatura: 15°C
Rocío: 12°C
Humedad: 82%
Barómetro: 1010.2 hPa
Clouds: Cubierto
Visibility: 3 km
Cloud details: Few Clouds 610 m
Muy nuboso 1219 m
Cubierto 2438 m
2019/01/16 23:50 KRHV 162350Z 13018KT 2SM FEW020 BKN040 OVC080 15/12 A2983 RA
 
KOAK - Oakland, California, USA
Distance from station: NNO 50km
Actualización: 18/01/2019 15:53
Cubierto
Cubierto
 Viento del SE
Viento: SE 6 km/h
Temperatura: 12°C
Rocío: 9°C
Humedad: 82%
Barómetro: 1026.1 hPa
Clouds: Cubierto
Visibility: 16 km
Cloud details: Few Clouds 366 m
Muy nuboso 2134 m
Cubierto 3353 m
2019/01/18 14:53 KOAK 181453Z 13003KT 10SM FEW012 BKN070 OVC110 12/09 A3030 RMK AO2 RAB1356E27 SLP261 P0000 60000 T01170094 53004
KSQL - San Carlos Airpo, California, USA
Distance from station: NO 34km
Actualización: 18/01/2019 15:55
Cubierto
Cubierto
 Viento del calm
Viento: Calma
Temperatura: 10°C
Rocío: 10°C
Humedad: 100%
Barómetro: 1026.1 hPa
Clouds: Cubierto
Visibility: 13 km
Cloud details: Parcialmente nuboso 2134 m
Cubierto 2438 m
2019/01/18 14:55 KSQL 181455Z AUTO 00000KT 8SM SCT070 OVC080 10/10 A3030 RMK AO2
 
KSFO - San Francisco, California, USA
Distance from station: NO 49km
Actualización: 18/01/2019 15:56
Cubierto
Cubierto
 Viento del N
Viento: N 6 km/h
Temperatura: 14°C
Rocío: 9°C
Humedad: 72%
Barómetro: 1025.7 hPa
Clouds: Cubierto
Visibility: 16 km
Cloud details: Few Clouds 1128 m
Cubierto 2743 m
2019/01/18 14:56 KSFO 181456Z 01003KT 10SM FEW037 OVC090 14/09 A3029 RMK AO2 SLP258 T01390089 53007
KE16 - San Martin, California, USA
Distance from station: ESE 43km
Actualización: 18/01/2019 16:10
Cubierto
Cubierto
 Viento del calm
Viento: Calma
Temperatura: 10°C
Rocío: 9°C
Humedad: 94%
Barómetro: 1027.1 hPa
Clouds: Cubierto
Visibility: 11 km
Cloud details: Parcialmente nuboso 1981 m
Cubierto 2591 m
2019/01/18 15:10 KE16 181510Z AUTO 00000KT 7SM SCT065 OVC085 10/09 A3033 RMK AO2 PWINO PNO
 
KWVI - Watsonville, California, USA
Distance from station: SSE 44km
Actualización: 18/01/2019 15:53
Cubierto
Cubierto
 Viento del NNO
Viento: NNO 6 km/h
Temperatura: 10°C
Rocío: 9°C
Humedad: 94%
Barómetro: 1026.1 hPa
Clouds: Cubierto
Visibility: 16 km
Cloud details: Few Clouds 1981 m
Cubierto 2743 m
2019/01/18 14:53 KWVI 181453Z AUTO 34003KT 10SM FEW065 OVC090 10/09 A3030 RMK AO2 SLP259 T01000094 53002
KHAF - Half Moon Bay, California, USA
Distance from station: ONO 50km
Actualización: 18/01/2019 16:20
Mist, Cubierto
Mist, Cubierto
 Viento del calm
Viento: Calma
Temperatura: 10°C
Rocío: 9°C
Humedad: 94%
Barómetro: 1026.1 hPa
Resumen: Mist
Clouds: Cubierto
Visibility: 10 km
Cloud details: Parcialmente nuboso 61 m
Cubierto 1981 m
2019/01/18 15:20 KHAF 181520Z AUTO 00000KT 6SM BR SCT002 OVC065 10/09 A3030 RMK AO2
 
KHWD - Hayward, California, USA
Distance from station: N 44km
Actualización: 18/01/2019 15:54
Cubierto
Cubierto
 Viento del calm
Viento: Calma
Temperatura: 12°C
Rocío: 9°C
Humedad: 82%
Barómetro: 1026.1 hPa
Clouds: Cubierto
Visibility: 16 km
Cloud details: Cubierto 2134 m
2019/01/18 14:54 KHWD 181454Z 00000KT 10SM OVC070 12/09 A3030 RMK AO2 RAB1358E30 SLP270 P0000 60000 T01170094 53005
KLVK - Livermore, California, USA
Distance from station: NNE 51km
Actualización: 18/01/2019 15:53
Cubierto
Cubierto
 Viento del calm
Viento: Calma
Temperatura: 10°C
Rocío: 8°C
Humedad: 88%
Barómetro: 1026.1 hPa
Clouds: Cubierto
Visibility: 13 km
Cloud details: Cubierto 1981 m
2019/01/18 14:53 KLVK 181453Z 00000KT 8SM OVC065 10/08 A3030 RMK AO2 SLP261 T01000083 53006